sensor_id;sensor_type;location;lat;lon;timestamp;pressure;altitude;pressure_sealevel;temperature;humidity
22647;BME280;11490;42.726;23.268;2022-08-21T00:00:17;94672.66;;;20.15;100.00
22647;BME280;11490;42.726;23.268;2022-08-21T00:03:10;94669.03;;;20.19;100.00
22647;BME280;11490;42.726;23.268;2022-08-21T00:05:38;94690.78;;;20.36;100.00
22647;BME280;11490;42.726;23.268;2022-08-21T00:08:04;94689.81;;;20.32;100.00
22647;BME280;11490;42.726;23.268;2022-08-21T00:10:29;94672.13;;;20.04;100.00
22647;BME280;11490;42.726;23.268;2022-08-21T00:12:55;94667.53;;;20.05;100.00
22647;BME280;11490;42.726;23.268;2022-08-21T00:15:28;94685.13;;;20.24;100.00
22647;BME280;11490;42.726;23.268;2022-08-21T00:17:55;94619.13;;;19.81;100.00
22647;BME280;11490;42.726;23.268;2022-08-21T00:20:24;94695.13;;;20.15;100.00
22647;BME280;11490;42.726;23.268;2022-08-21T00:22:50;94643.06;;;19.87;100.00
22647;BME280;11490;42.726;23.268;2022-08-21T00:25:17;94632.63;;;20.03;100.00
22647;BME280;11490;42.726;23.268;2022-08-21T00:27:43;94636.88;;;19.95;100.00
22647;BME280;11490;42.726;23.268;2022-08-21T00:30:15;94619.13;;;19.81;100.00
22647;BME280;11490;42.726;23.268;2022-08-21T00:32:41;94675.41;;;20.23;100.00
22647;BME280;11490;42.726;23.268;2022-08-21T00:35:10;94598.44;;;19.85;100.00
22647;BME280;11490;42.726;23.268;2022-08-21T00:37:37;94663.13;;;20.17;100.00
22647;BME280;11490;42.726;23.268;2022-08-21T00:40:03;94675.66;;;20.13;100.00
22647;BME280;11490;42.726;23.268;2022-08-21T00:42:29;94667.31;;;20.01;100.00
22647;BME280;11490;42.726;23.268;2022-08-21T00:44:55;94652.94;;;19.92;100.00
22647;BME280;11490;42.726;23.268;2022-08-21T00:47:21;94624.63;;;19.98;100.00
22647;BME280;11490;42.726;23.268;2022-08-21T00:49:47;94628.06;;;19.81;100.00
22647;BME280;11490;42.726;23.268;2022-08-21T00:52:19;94647.53;;;19.92;100.00
22647;BME280;11490;42.726;23.268;2022-08-21T00:54:47;94626.69;;;19.70;100.00
22647;BME280;11490;42.726;23.268;2022-08-21T00:57:24;94680.72;;;20.06;100.00
22647;BME280;11490;42.726;23.268;2022-08-21T00:59:56;94618.44;;;19.75;100.00
22647;BME280;11490;42.726;23.268;2022-08-21T01:02:23;94634.50;;;19.94;100.00
22647;BME280;11490;42.726;23.268;2022-08-21T01:04:52;94636.59;;;19.75;100.00
22647;BME280;11490;42.726;23.268;2022-08-21T01:07:18;94645.81;;;19.96;100.00
22647;BME280;11490;42.726;23.268;2022-08-21T01:09:46;94659.34;;;19.96;100.00
22647;BME280;11490;42.726;23.268;2022-08-21T01:12:12;94656.50;;;20.01;100.00
22647;BME280;11490;42.726;23.268;2022-08-21T01:14:38;94659.69;;;20.03;100.00
22647;BME280;11490;42.726;23.268;2022-08-21T01:17:05;94643.72;;;19.93;100.00
22647;BME280;11490;42.726;23.268;2022-08-21T01:19:31;94643.09;;;19.96;100.00
22647;BME280;11490;42.726;23.268;2022-08-21T01:21:57;94639.66;;;20.04;100.00
22647;BME280;11490;42.726;23.268;2022-08-21T01:24:25;94655.56;;;20.36;100.00
22647;BME280;11490;42.726;23.268;2022-08-21T01:26:51;94611.94;;;20.07;100.00
22647;BME280;11490;42.726;23.268;2022-08-21T01:29:26;94653.69;;;20.15;100.00
22647;BME280;11490;42.726;23.268;2022-08-21T01:31:54;94646.66;;;20.05;100.00
22647;BME280;11490;42.726;23.268;2022-08-21T01:34:19;94655.41;;;20.02;100.00
22647;BME280;11490;42.726;23.268;2022-08-21T01:36:45;94662.09;;;20.05;100.00
22647;BME280;11490;42.726;23.268;2022-08-21T01:39:12;94630.31;;;19.88;100.00
22647;BME280;11490;42.726;23.268;2022-08-21T01:41:37;94641.25;;;20.05;100.00
22647;BME280;11490;42.726;23.268;2022-08-21T01:44:03;94631.28;;;19.92;100.00
22647;BME280;11490;42.726;23.268;2022-08-21T01:46:29;94634.13;;;19.87;100.00
22647;BME280;11490;42.726;23.268;2022-08-21T01:48:54;94620.34;;;19.75;100.00
22647;BME280;11490;42.726;23.268;2022-08-21T01:51:21;94633.13;;;19.83;100.00
22647;BME280;11490;42.726;23.268;2022-08-21T01:53:47;94660.81;;;20.02;100.00
22647;BME280;11490;42.726;23.268;2022-08-21T01:56:15;94664.13;;;19.99;100.00
22647;BME280;11490;42.726;23.268;2022-08-21T01:58:41;94643.00;;;19.79;100.00
22647;BME280;11490;42.726;23.268;2022-08-21T02:01:08;94661.19;;;19.87;100.00
22647;BME280;11490;42.726;23.268;2022-08-21T02:03:35;94651.47;;;19.86;100.00
22647;BME280;11490;42.726;23.268;2022-08-21T02:06:00;94641.03;;;19.71;100.00
22647;BME280;11490;42.726;23.268;2022-08-21T02:08:27;94625.25;;;19.64;100.00
22647;BME280;11490;42.726;23.268;2022-08-21T02:10:53;94658.44;;;19.78;100.00
22647;BME280;11490;42.726;23.268;2022-08-21T02:13:19;94647.91;;;19.54;100.00
22647;BME280;11490;42.726;23.268;2022-08-21T02:15:44;94673.50;;;19.71;100.00
22647;BME280;11490;42.726;23.268;2022-08-21T02:18:10;94669.69;;;19.72;100.00
22647;BME280;11490;42.726;23.268;2022-08-21T02:20:39;94659.66;;;19.72;100.00
22647;BME280;11490;42.726;23.268;2022-08-21T02:23:07;94663.91;;;19.65;100.00
22647;BME280;11490;42.726;23.268;2022-08-21T02:25:34;94664.66;;;19.79;100.00
22647;BME280;11490;42.726;23.268;2022-08-21T02:28:03;94669.47;;;19.82;100.00
22647;BME280;11490;42.726;23.268;2022-08-21T02:30:36;94669.81;;;19.89;100.00
22647;BME280;11490;42.726;23.268;2022-08-21T02:33:04;94661.44;;;19.77;100.00
22647;BME280;11490;42.726;23.268;2022-08-21T02:35:29;94671.09;;;19.47;100.00
22647;BME280;11490;42.726;23.268;2022-08-21T02:37:59;94670.13;;;19.65;100.00
22647;BME280;11490;42.726;23.268;2022-08-21T02:40:29;94668.38;;;19.47;100.00
22647;BME280;11490;42.726;23.268;2022-08-21T02:42:57;94653.81;;;19.56;100.00
22647;BME280;11490;42.726;23.268;2022-08-21T02:45:23;94670.72;;;19.62;100.00
22647;BME280;11490;42.726;23.268;2022-08-21T02:47:58;94668.31;;;19.60;100.00
22647;BME280;11490;42.726;23.268;2022-08-21T02:50:30;94676.69;;;19.50;100.00
22647;BME280;11490;42.726;23.268;2022-08-21T02:52:56;94670.38;;;19.41;100.00
22647;BME280;11490;42.726;23.268;2022-08-21T02:55:24;94673.75;;;19.60;100.00
22647;BME280;11490;42.726;23.268;2022-08-21T02:57:52;94665.53;;;19.66;100.00
22647;BME280;11490;42.726;23.268;2022-08-21T03:00:19;94679.13;;;19.74;100.00
22647;BME280;11490;42.726;23.268;2022-08-21T03:02:46;94663.66;;;19.52;100.00
22647;BME280;11490;42.726;23.268;2022-08-21T03:05:12;94678.13;;;19.70;100.00
22647;BME280;11490;42.726;23.268;2022-08-21T03:07:38;94659.19;;;19.34;100.00
22647;BME280;11490;42.726;23.268;2022-08-21T03:10:05;94678.91;;;19.48;100.00
22647;BME280;11490;42.726;23.268;2022-08-21T03:12:34;94682.00;;;19.55;100.00
22647;BME280;11490;42.726;23.268;2022-08-21T03:15:02;94651.81;;;19.26;100.00
22647;BME280;11490;42.726;23.268;2022-08-21T03:17:28;94679.72;;;19.49;100.00
22647;BME280;11490;42.726;23.268;2022-08-21T03:19:54;94669.13;;;19.61;100.00
22647;BME280;11490;42.726;23.268;2022-08-21T03:22:19;94642.19;;;19.34;100.00
22647;BME280;11490;42.726;23.268;2022-08-21T03:24:44;94663.78;;;19.47;100.00
22647;BME280;11490;42.726;23.268;2022-08-21T03:27:10;94678.91;;;19.71;100.00
22647;BME280;11490;42.726;23.268;2022-08-21T03:29:38;94670.38;;;19.55;100.00
22647;BME280;11490;42.726;23.268;2022-08-21T03:32:03;94646.56;;;19.43;100.00
22647;BME280;11490;42.726;23.268;2022-08-21T03:34:29;94665.75;;;19.55;100.00
22647;BME280;11490;42.726;23.268;2022-08-21T03:36:54;94679.72;;;19.71;100.00
22647;BME280;11490;42.726;23.268;2022-08-21T03:39:20;94665.16;;;19.58;100.00
22647;BME280;11490;42.726;23.268;2022-08-21T03:41:45;94675.47;;;19.79;100.00
22647;BME280;11490;42.726;23.268;2022-08-21T03:44:12;94648.91;;;19.58;100.00
22647;BME280;11490;42.726;23.268;2022-08-21T03:46:38;94672.94;;;19.60;100.00
22647;BME280;11490;42.726;23.268;2022-08-21T03:49:04;94680.44;;;19.85;100.00
22647;BME280;11490;42.726;23.268;2022-08-21T03:51:29;94672.75;;;19.79;100.00
22647;BME280;11490;42.726;23.268;2022-08-21T03:53:57;94665.16;;;19.45;100.00
22647;BME280;11490;42.726;23.268;2022-08-21T03:56:23;94677.31;;;19.70;100.00
22647;BME280;11490;42.726;23.268;2022-08-21T03:58:49;94695.88;;;19.85;100.00
22647;BME280;11490;42.726;23.268;2022-08-21T04:01:14;94666.66;;;19.15;100.00
22647;BME280;11490;42.726;23.268;2022-08-21T04:03:40;94692.31;;;19.53;100.00
22647;BME280;11490;42.726;23.268;2022-08-21T04:06:06;94682.78;;;19.56;100.00
22647;BME280;11490;42.726;23.268;2022-08-21T04:08:32;94683.22;;;19.49;100.00
22647;BME280;11490;42.726;23.268;2022-08-21T04:11:02;94663.38;;;19.40;100.00
22647;BME280;11490;42.726;23.268;2022-08-21T04:13:27;94681.19;;;19.55;100.00
22647;BME280;11490;42.726;23.268;2022-08-21T04:15:54;94668.25;;;19.52;100.00
22647;BME280;11490;42.726;23.268;2022-08-21T04:18:20;94697.84;;;19.71;100.00
22647;BME280;11490;42.726;23.268;2022-08-21T04:20:47;94689.88;;;19.66;100.00
22647;BME280;11490;42.726;23.268;2022-08-21T04:23:14;94674.59;;;19.47;100.00
22647;BME280;11490;42.726;23.268;2022-08-21T04:25:40;94673.25;;;19.45;100.00
22647;BME280;11490;42.726;23.268;2022-08-21T04:28:05;94661.97;;;19.43;100.00
22647;BME280;11490;42.726;23.268;2022-08-21T04:30:31;94696.75;;;19.72;100.00
22647;BME280;11490;42.726;23.268;2022-08-21T04:32:58;94696.13;;;19.75;100.00
22647;BME280;11490;42.726;23.268;2022-08-21T04:35:25;94673.38;;;19.76;100.00
22647;BME280;11490;42.726;23.268;2022-08-21T04:37:51;94666.00;;;19.68;100.00
22647;BME280;11490;42.726;23.268;2022-08-21T04:40:18;94668.59;;;19.73;100.00
22647;BME280;11490;42.726;23.268;2022-08-21T04:42:58;94684.94;;;19.68;100.00
22647;BME280;11490;42.726;23.268;2022-08-21T04:45:28;94662.16;;;19.46;100.00
22647;BME280;11490;42.726;23.268;2022-08-21T04:47:57;94691.69;;;19.56;100.00
22647;BME280;11490;42.726;23.268;2022-08-21T04:50:27;94692.06;;;19.64;100.00
22647;BME280;11490;42.726;23.268;2022-08-21T04:52:54;94666.13;;;19.63;100.00
22647;BME280;11490;42.726;23.268;2022-08-21T04:55:21;94666.13;;;19.63;100.00
22647;BME280;11490;42.726;23.268;2022-08-21T04:57:48;94674.75;;;19.65;100.00
22647;BME280;11490;42.726;23.268;2022-08-21T05:00:16;94653.31;;;19.54;100.00
22647;BME280;11490;42.726;23.268;2022-08-21T05:02:43;94660.84;;;19.80;100.00
22647;BME280;11490;42.726;23.268;2022-08-21T05:05:09;94677.78;;;19.94;100.00
22647;BME280;11490;42.726;23.268;2022-08-21T05:07:35;94662.69;;;19.71;100.00
22647;BME280;11490;42.726;23.268;2022-08-21T05:10:02;94670.28;;;19.69;100.00
22647;BME280;11490;42.726;23.268;2022-08-21T05:12:28;94655.97;;;19.68;100.00
22647;BME280;11490;42.726;23.268;2022-08-21T05:14:53;94688.69;;;20.03;100.00
22647;BME280;11490;42.726;23.268;2022-08-21T05:17:19;94678.28;;;19.96;100.00
22647;BME280;11490;42.726;23.268;2022-08-21T05:19:44;94680.19;;;19.95;100.00
22647;BME280;11490;42.726;23.268;2022-08-21T05:22:10;94696.16;;;20.06;100.00
22647;BME280;11490;42.726;23.268;2022-08-21T05:24:36;94650.97;;;19.84;100.00
22647;BME280;11490;42.726;23.268;2022-08-21T05:27:01;94669.28;;;20.09;100.00
22647;BME280;11490;42.726;23.268;2022-08-21T05:29:26;94659.22;;;20.01;100.00
22647;BME280;11490;42.726;23.268;2022-08-21T05:31:52;94639.09;;;19.93;100.00
22647;BME280;11490;42.726;23.268;2022-08-21T05:34:20;94632.34;;;20.13;100.00
22647;BME280;11490;42.726;23.268;2022-08-21T05:36:46;94686.59;;;20.30;100.00
22647;BME280;11490;42.726;23.268;2022-08-21T05:39:12;94681.09;;;20.44;100.00
22647;BME280;11490;42.726;23.268;2022-08-21T05:41:37;94677.50;;;20.26;100.00
22647;BME280;11490;42.726;23.268;2022-08-21T05:44:03;94676.13;;;20.38;100.00
22647;BME280;11490;42.726;23.268;2022-08-21T05:46:29;94682.19;;;20.34;100.00
22647;BME280;11490;42.726;23.268;2022-08-21T05:48:54;94669.91;;;20.37;100.00
22647;BME280;11490;42.726;23.268;2022-08-21T05:51:19;94667.91;;;20.43;100.00
22647;BME280;11490;42.726;23.268;2022-08-21T05:53:45;94675.38;;;20.46;100.00
22647;BME280;11490;42.726;23.268;2022-08-21T05:56:17;94639.00;;;20.07;100.00
22647;BME280;11490;42.726;23.268;2022-08-21T05:58:45;94681.19;;;20.30;100.00
22647;BME280;11490;42.726;23.268;2022-08-21T06:01:11;94675.28;;;20.28;100.00
22647;BME280;11490;42.726;23.268;2022-08-21T06:03:38;94672.50;;;20.42;100.00
22647;BME280;11490;42.726;23.268;2022-08-21T06:06:04;94667.56;;;20.35;100.00
22647;BME280;11490;42.726;23.268;2022-08-21T06:08:30;94681.16;;;20.53;100.00
22647;BME280;11490;42.726;23.268;2022-08-21T06:10:59;94687.84;;;20.55;100.00
22647;BME280;11490;42.726;23.268;2022-08-21T06:13:28;94683.03;;;20.21;100.00
22647;BME280;11490;42.726;23.268;2022-08-21T06:16:01;94681.72;;;20.10;100.00
22647;BME280;11490;42.726;23.268;2022-08-21T06:18:27;94676.66;;;20.17;100.00
22647;BME280;11490;42.726;23.268;2022-08-21T06:20:53;94675.03;;;20.39;100.00
22647;BME280;11490;42.726;23.268;2022-08-21T06:23:21;94690.16;;;20.70;100.00
22647;BME280;11490;42.726;23.268;2022-08-21T06:25:46;94675.06;;;20.87;100.00
22647;BME280;11490;42.726;23.268;2022-08-21T06:28:12;94679.84;;;20.98;100.00
22647;BME280;11490;42.726;23.268;2022-08-21T06:30:39;94682.91;;;21.05;100.00
22647;BME280;11490;42.726;23.268;2022-08-21T06:33:05;94688.81;;;21.07;100.00
22647;BME280;11490;42.726;23.268;2022-08-21T06:35:31;94678.28;;;21.14;100.00
22647;BME280;11490;42.726;23.268;2022-08-21T06:37:57;94688.88;;;21.25;100.00
22647;BME280;11490;42.726;23.268;2022-08-21T06:40:23;94680.53;;;21.12;100.00
22647;BME280;11490;42.726;23.268;2022-08-21T06:42:48;94677.00;;;21.03;100.00
22647;BME280;11490;42.726;23.268;2022-08-21T06:45:14;94688.34;;;21.05;100.00
22647;BME280;11490;42.726;23.268;2022-08-21T06:47:40;94687.28;;;21.24;100.00
22647;BME280;11490;42.726;23.268;2022-08-21T06:50:06;94684.50;;;21.15;100.00
22647;BME280;11490;42.726;23.268;2022-08-21T06:52:36;94677.22;;;21.33;100.00
22647;BME280;11490;42.726;23.268;2022-08-21T06:55:02;94683.78;;;21.32;100.00
22647;BME280;11490;42.726;23.268;2022-08-21T06:57:27;94680.22;;;21.05;100.00
22647;BME280;11490;42.726;23.268;2022-08-21T06:59:53;94687.13;;;21.29;100.00
22647;BME280;11490;42.726;23.268;2022-08-21T07:02:18;94685.66;;;21.23;100.00
22647;BME280;11490;42.726;23.268;2022-08-21T07:04:44;94684.97;;;21.08;100.00
22647;BME280;11490;42.726;23.268;2022-08-21T07:07:09;94694.22;;;21.07;100.00
22647;BME280;11490;42.726;23.268;2022-08-21T07:09:35;94690.25;;;21.05;100.00
22647;BME280;11490;42.726;23.268;2022-08-21T07:12:01;94702.53;;;21.02;100.00
22647;BME280;11490;42.726;23.268;2022-08-21T07:14:27;94700.59;;;20.94;100.00
22647;BME280;11490;42.726;23.268;2022-08-21T07:16:52;94698.69;;;21.03;100.00
22647;BME280;11490;42.726;23.268;2022-08-21T07:19:18;94696.00;;;21.12;100.00
22647;BME280;11490;42.726;23.268;2022-08-21T07:21:43;94696.38;;;21.19;100.00
22647;BME280;11490;42.726;23.268;2022-08-21T07:24:10;94687.75;;;21.17;100.00
22647;BME280;11490;42.726;23.268;2022-08-21T07:26:36;94665.25;;;21.17;100.00
22647;BME280;11490;42.726;23.268;2022-08-21T07:29:02;94690.28;;;21.13;100.00
22647;BME280;11490;42.726;23.268;2022-08-21T07:31:28;94679.00;;;21.29;100.00
22647;BME280;11490;42.726;23.268;2022-08-21T07:33:54;94695.28;;;21.63;100.00
22647;BME280;11490;42.726;23.268;2022-08-21T07:36:19;94673.75;;;21.58;100.00
22647;BME280;11490;42.726;23.268;2022-08-21T07:38:45;94681.22;;;21.78;100.00
22647;BME280;11490;42.726;23.268;2022-08-21T07:41:17;94667.97;;;21.77;100.00
22647;BME280;11490;42.726;23.268;2022-08-21T07:43:44;94683.78;;;22.01;100.00
22647;BME280;11490;42.726;23.268;2022-08-21T07:46:10;94661.59;;;21.64;100.00
22647;BME280;11490;42.726;23.268;2022-08-21T07:48:36;94666.84;;;21.86;100.00
22647;BME280;11490;42.726;23.268;2022-08-21T07:51:07;94650.56;;;22.04;100.00
22647;BME280;11490;42.726;23.268;2022-08-21T07:53:37;94663.13;;;22.17;100.00
22647;BME280;11490;42.726;23.268;2022-08-21T07:56:04;94664.56;;;22.23;100.00
22647;BME280;11490;42.726;23.268;2022-08-21T07:58:31;94672.03;;;22.35;98.09
22647;BME280;11490;42.726;23.268;2022-08-21T08:00:56;94674.69;;;22.60;98.02
22647;BME280;11490;42.726;23.268;2022-08-21T08:03:22;94667.22;;;22.40;93.82
22647;BME280;11490;42.726;23.268;2022-08-21T08:05:47;94678.81;;;22.67;96.90
22647;BME280;11490;42.726;23.268;2022-08-21T08:08:13;94669.44;;;22.85;91.55
22647;BME280;11490;42.726;23.268;2022-08-21T08:10:38;94674.16;;;22.76;94.63
22647;BME280;11490;42.726;23.268;2022-08-21T08:13:04;94681.69;;;23.29;95.29
22647;BME280;11490;42.726;23.268;2022-08-21T08:15:30;94678.34;;;23.53;91.90
22647;BME280;11490;42.726;23.268;2022-08-21T08:17:56;94655.63;;;23.49;89.67
22647;BME280;11490;42.726;23.268;2022-08-21T08:20:23;94669.06;;;23.54;87.08
22647;BME280;11490;42.726;23.268;2022-08-21T08:22:50;94661.31;;;23.14;87.24
22647;BME280;11490;42.726;23.268;2022-08-21T08:25:16;94665.31;;;23.37;92.25
22647;BME280;11490;42.726;23.268;2022-08-21T08:27:43;94661.06;;;23.69;91.70
22647;BME280;11490;42.726;23.268;2022-08-21T08:30:11;94667.72;;;24.13;86.01
22647;BME280;11490;42.726;23.268;2022-08-21T08:32:37;94649.28;;;24.31;87.32
22647;BME280;11490;42.726;23.268;2022-08-21T08:35:04;94678.16;;;24.57;85.15
22647;BME280;11490;42.726;23.268;2022-08-21T08:37:29;94663.97;;;24.51;82.06
22647;BME280;11490;42.726;23.268;2022-08-21T08:39:55;94657.72;;;24.75;83.17
22647;BME280;11490;42.726;23.268;2022-08-21T08:42:33;94661.50;;;24.95;81.36
22647;BME280;11490;42.726;23.268;2022-08-21T08:45:10;94668.03;;;24.45;79.22
22647;BME280;11490;42.726;23.268;2022-08-21T08:47:41;94670.38;;;24.22;82.79
22647;BME280;11490;42.726;23.268;2022-08-21T08:50:18;94667.75;;;24.26;86.86
22647;BME280;11490;42.726;23.268;2022-08-21T08:55:41;94655.19;;;23.79;84.60
22647;BME280;11490;42.726;23.268;2022-08-21T08:58:19;94659.31;;;23.86;81.37
22647;BME280;11490;42.726;23.268;2022-08-21T09:00:47;94653.28;;;24.13;83.44
22647;BME280;11490;42.726;23.268;2022-08-21T09:03:15;94658.81;;;24.37;84.14
22647;BME280;11490;42.726;23.268;2022-08-21T09:06:18;94642.03;;;24.60;78.72
22647;BME280;11490;42.726;23.268;2022-08-21T09:11:44;94647.59;;;24.87;78.06
22647;BME280;11490;42.726;23.268;2022-08-21T09:14:31;94632.59;;;25.18;76.27
22647;BME280;11490;42.726;23.268;2022-08-21T09:20:38;94635.47;;;24.97;74.77
22647;BME280;11490;42.726;23.268;2022-08-21T09:25:49;94635.06;;;25.47;76.14
22647;BME280;11490;42.726;23.268;2022-08-21T09:28:18;94620.25;;;25.60;76.43
22647;BME280;11490;42.726;23.268;2022-08-21T09:30:44;94614.38;;;25.34;73.92
22647;BME280;11490;42.726;23.268;2022-08-21T09:33:11;94607.44;;;25.37;73.02
22647;BME280;11490;42.726;23.268;2022-08-21T09:35:50;94605.88;;;25.63;78.19
22647;BME280;11490;42.726;23.268;2022-08-21T09:38:25;94597.25;;;25.49;72.09
22647;BME280;11490;42.726;23.268;2022-08-21T09:41:00;94604.00;;;25.80;71.47
22647;BME280;11490;42.726;23.268;2022-08-21T09:43:29;94561.03;;;24.60;73.71
22647;BME280;11490;42.726;23.268;2022-08-21T09:46:08;94591.56;;;25.54;77.42
22647;BME280;11490;42.726;23.268;2022-08-21T09:49:02;94614.44;;;25.90;73.17
22647;BME280;11490;42.726;23.268;2022-08-21T09:51:35;94578.78;;;25.71;72.43
22647;BME280;11490;42.726;23.268;2022-08-21T09:54:15;94565.53;;;25.45;73.35
22647;BME280;11490;42.726;23.268;2022-08-21T09:56:55;94565.88;;;25.15;73.50
22647;BME280;11490;42.726;23.268;2022-08-21T09:59:51;94606.47;;;25.05;74.64
22647;BME280;11490;42.726;23.268;2022-08-21T10:02:30;94516.59;;;24.47;75.44
22647;BME280;11490;42.726;23.268;2022-08-21T10:05:23;94600.13;;;25.01;75.57
22647;BME280;11490;42.726;23.268;2022-08-21T10:07:49;94563.53;;;24.53;78.15
22647;BME280;11490;42.726;23.268;2022-08-21T10:10:18;94582.38;;;24.58;77.58
22647;BME280;11490;42.726;23.268;2022-08-21T10:12:53;94591.69;;;24.81;78.79
22647;BME280;11490;42.726;23.268;2022-08-21T10:18:28;94543.94;;;24.87;74.98
22647;BME280;11490;42.726;23.268;2022-08-21T10:24:03;94559.09;;;25.37;74.96
22647;BME280;11490;42.726;23.268;2022-08-21T10:27:03;94577.47;;;25.52;75.19
22647;BME280;11490;42.726;23.268;2022-08-21T10:29:42;94552.91;;;25.40;73.26
22647;BME280;11490;42.726;23.268;2022-08-21T10:40:34;94539.50;;;25.35;75.19
22647;BME280;11490;42.726;23.268;2022-08-21T10:46:22;94559.16;;;25.13;74.07
22647;BME280;11490;42.726;23.268;2022-08-21T10:49:02;94530.56;;;25.50;72.56
22647;BME280;11490;42.726;23.268;2022-08-21T10:52:01;94527.13;;;25.65;72.59
22647;BME280;11490;42.726;23.268;2022-08-21T10:55:24;94517.38;;;26.12;71.20
22647;BME280;11490;42.726;23.268;2022-08-21T10:57:36;94537.44;;;26.31;67.27
22647;BME280;11490;42.726;23.268;2022-08-21T11:00:10;94500.19;;;26.42;70.50
22647;BME280;11490;42.726;23.268;2022-08-21T11:02:41;94504.84;;;26.58;68.99
22647;BME280;11490;42.726;23.268;2022-08-21T11:05:24;94538.56;;;27.32;67.40
22647;BME280;11490;42.726;23.268;2022-08-21T11:07:58;94522.53;;;26.95;67.66
22647;BME280;11490;42.726;23.268;2022-08-21T11:11:01;94514.41;;;26.99;68.04
22647;BME280;11490;42.726;23.268;2022-08-21T11:13:45;94518.63;;;26.61;66.38
22647;BME280;11490;42.726;23.268;2022-08-21T11:20:00;94421.38;;;25.82;67.21
22647;BME280;11490;42.726;23.268;2022-08-21T11:22:58;94508.84;;;26.44;70.36
22647;BME280;11490;42.726;23.268;2022-08-21T11:27:54;94489.25;;;27.51;65.51
22647;BME280;11490;42.726;23.268;2022-08-21T11:30:25;94495.03;;;27.65;64.75
22647;BME280;11490;42.726;23.268;2022-08-21T11:33:17;94516.75;;;27.96;64.98
22647;BME280;11490;42.726;23.268;2022-08-21T11:38:57;94494.00;;;27.35;66.05
22647;BME280;11490;42.726;23.268;2022-08-21T11:42:00;94507.75;;;27.54;65.73
22647;BME280;11490;42.726;23.268;2022-08-21T11:45:30;94461.72;;;27.44;65.50
22647;BME280;11490;42.726;23.268;2022-08-21T11:48:10;94493.66;;;27.36;67.18
22647;BME280;11490;42.726;23.268;2022-08-21T11:50:42;94466.78;;;27.03;68.04
22647;BME280;11490;42.726;23.268;2022-08-21T11:53:12;94475.44;;;26.35;68.69
22647;BME280;11490;42.726;23.268;2022-08-21T11:59:05;94488.22;;;26.31;68.63
22647;BME280;11490;42.726;23.268;2022-08-21T12:01:39;94480.16;;;26.54;68.55
22647;BME280;11490;42.726;23.268;2022-08-21T12:04:29;94481.72;;;26.71;69.14
22647;BME280;11490;42.726;23.268;2022-08-21T12:07:14;94482.63;;;26.59;68.98
22647;BME280;11490;42.726;23.268;2022-08-21T12:09:39;94464.31;;;26.28;67.92
22647;BME280;11490;42.726;23.268;2022-08-21T12:12:22;94482.03;;;26.34;69.26
22647;BME280;11490;42.726;23.268;2022-08-21T12:15:03;94448.69;;;26.13;66.86
22647;BME280;11490;42.726;23.268;2022-08-21T12:17:37;94475.59;;;25.95;66.26
22647;BME280;11490;42.726;23.268;2022-08-21T12:25:36;94480.81;;;25.85;69.61
22647;BME280;11490;42.726;23.268;2022-08-21T12:28:21;94472.84;;;25.80;69.00
22647;BME280;11490;42.726;23.268;2022-08-21T12:30:48;94484.34;;;26.01;72.13
22647;BME280;11490;42.726;23.268;2022-08-21T12:33:35;94496.84;;;26.02;69.62
22647;BME280;11490;42.726;23.268;2022-08-21T12:36:18;94496.94;;;25.90;67.07
22647;BME280;11490;42.726;23.268;2022-08-21T12:38:57;94507.94;;;25.78;67.56
22647;BME280;11490;42.726;23.268;2022-08-21T12:44:32;94500.53;;;25.62;67.66
22647;BME280;11490;42.726;23.268;2022-08-21T12:50:15;94490.66;;;25.74;71.28
22647;BME280;11490;42.726;23.268;2022-08-21T12:53:40;94495.13;;;25.66;68.89
22647;BME280;11490;42.726;23.268;2022-08-21T12:55:45;94466.22;;;25.65;70.33
22647;BME280;11490;42.726;23.268;2022-08-21T12:58:27;94465.03;;;25.50;68.43
22647;BME280;11490;42.726;23.268;2022-08-21T13:00:59;94447.34;;;25.44;68.54
22647;BME280;11490;42.726;23.268;2022-08-21T13:03:26;94440.00;;;25.48;68.56
22647;BME280;11490;42.726;23.268;2022-08-21T13:05:53;94461.66;;;25.41;69.19
22647;BME280;11490;42.726;23.268;2022-08-21T13:08:26;94465.47;;;25.37;69.87
22647;BME280;11490;42.726;23.268;2022-08-21T13:11:15;94480.06;;;25.28;69.14
22647;BME280;11490;42.726;23.268;2022-08-21T13:13:42;94489.69;;;25.38;71.07
22647;BME280;11490;42.726;23.268;2022-08-21T13:16:17;94453.84;;;25.12;71.78
22647;BME280;11490;42.726;23.268;2022-08-21T13:19:01;94446.97;;;25.30;74.69
22647;BME280;11490;42.726;23.268;2022-08-21T13:21:40;94477.09;;;25.49;74.50
22647;BME280;11490;42.726;23.268;2022-08-21T13:26:35;94447.91;;;25.22;70.70
22647;BME280;11490;42.726;23.268;2022-08-21T13:29:07;94452.53;;;25.49;74.56
22647;BME280;11490;42.726;23.268;2022-08-21T13:31:36;94445.81;;;25.31;69.54
22647;BME280;11490;42.726;23.268;2022-08-21T13:34:03;94413.69;;;25.56;71.85
22647;BME280;11490;42.726;23.268;2022-08-21T13:36:35;94387.31;;;25.32;71.16
22647;BME280;11490;42.726;23.268;2022-08-21T13:39:04;94426.50;;;25.67;69.49
22647;BME280;11490;42.726;23.268;2022-08-21T13:41:33;94454.00;;;26.06;70.66
22647;BME280;11490;42.726;23.268;2022-08-21T13:44:18;94421.66;;;25.77;69.58
22647;BME280;11490;42.726;23.268;2022-08-21T13:46:44;94418.16;;;25.48;67.48
22647;BME280;11490;42.726;23.268;2022-08-21T13:49:13;94432.00;;;25.55;68.70
22647;BME280;11490;42.726;23.268;2022-08-21T13:51:40;94421.44;;;25.38;67.61
22647;BME280;11490;42.726;23.268;2022-08-21T13:56:49;94432.59;;;25.33;68.99